This is the latest recevied weather packets stored in our database for station/object KB3AWQ. If no packets are shown the sender has not sent any weather packets the latest 10 day(s).
| Time | Temp. | Humidity | Pressure | Rain* | Wind** | Luminosity | Snow |
|---|---|---|---|---|---|---|---|
| 1787778566 | 26.67° C | 66% | 1016.7 hPa | 0 mm | - | 170 W/m² | - |
| 1787778269 | 26.67° C | 65% | 1016.7 hPa | 0 mm | - | 206 W/m² | - |
| 1787777967 | 26.67° C | 65% | 1016.8 hPa | 0 mm | - | 201 W/m² | - |
| 1787777679 | 26.67° C | 65% | 1016.8 hPa | 0 mm | - | 164 W/m² | - |
| 1787777366 | 26.67° C | 65% | 1016.8 hPa | 0 mm | - | 106 W/m² | - |
| 1787777066 | 26.67° C | 64% | 1016.7 hPa | 0 mm | - | 115 W/m² | - |
| 1787776766 | 27.22° C | 64% | 1016.8 hPa | 0 mm | - | 131 W/m² | - |
| 1787776466 | 27.22° C | 63% | 1016.9 hPa | 0 mm | - | 133 W/m² | - |
| 1787776166 | 27.22° C | 64% | 1016.9 hPa | 0 mm | - | 150 W/m² | - |
| 1787775866 | 27.22° C | 64% | 1016.9 hPa | 0 mm | - | 284 W/m² | - |
| 1787775566 | 27.22° C | 63% | 1016.8 hPa | 0 mm | - | 436 W/m² | - |
| 1787775266 | 27.78° C | 62% | 1016.8 hPa | 0 mm | - | 398 W/m² | - |
| 1787774967 | 27.78° C | 63% | 1016.9 hPa | 0 mm | - | 549 W/m² | - |
| 1787774667 | 27.78° C | 62% | 1017 hPa | 0 mm | - | 312 W/m² | - |
| 1787774366 | 27.78° C | 61% | 1017 hPa | 0 mm | - | 574 W/m² | - |
| 1787774067 | 27.78° C | 62% | 1017.1 hPa | 0 mm | - | 441 W/m² | - |
| 1787773766 | 27.22° C | 63% | 1017.1 hPa | 0 mm | - | 688 W/m² | - |
| 1787773467 | 26.67° C | 66% | 1017.1 hPa | 0 mm | - | 709 W/m² | - |
| 1787773168 | 26.67° C | 66% | 1017.3 hPa | 0 mm | - | 570 W/m² | - |
| 1787772867 | 26.67° C | 66% | 1017.3 hPa | 0 mm | - | 686 W/m² | - |
| 1787772566 | 27.22° C | 64% | 1017.4 hPa | 0 mm | - | 491 W/m² | - |
| 1787772266 | 26.67° C | 64% | 1017.4 hPa | 0 mm | - | 702 W/m² | - |
| 1787771966 | 26.67° C | 66% | 1017.5 hPa | 0 mm | - | 638 W/m² | - |
| 1787771666 | 26.67° C | 65% | 1017.5 hPa | 0 mm | - | 802 W/m² | - |
| 1787771367 | 27.22° C | 64% | 1017.6 hPa | 0 mm | - | 687 W/m² | - |
* Rain latest hour (hover to see other rain measurements)
** Current wind speed in m/s (hover to see current wind gust speed)